createdAt,value
2023-01-07T00:00:09.981Z,6.6
2023-01-07T00:03:10.166Z,6.5
2023-01-07T00:06:09.682Z,6.5
2023-01-07T00:09:09.649Z,6.5
2023-01-07T00:12:09.641Z,6.5
2023-01-07T00:15:09.694Z,6.5
2023-01-07T00:18:09.685Z,6.4
2023-01-07T00:21:09.645Z,6.4
2023-01-07T00:24:09.745Z,6.4
2023-01-07T00:27:09.764Z,6.4
2023-01-07T00:30:09.692Z,6.4
2023-01-07T00:33:09.765Z,6.4
2023-01-07T00:36:09.652Z,6.4
2023-01-07T00:39:09.729Z,6.6
2023-01-07T00:42:09.750Z,7.1
2023-01-07T00:45:09.695Z,7.5
2023-01-07T00:48:09.619Z,7.7
2023-01-07T00:51:09.662Z,7.9
2023-01-07T00:54:09.675Z,8
2023-01-07T00:57:09.728Z,8.2
2023-01-07T01:00:09.719Z,8.3
2023-01-07T01:03:09.702Z,8.3
2023-01-07T01:06:09.985Z,8.4
2023-01-07T01:09:09.767Z,8.5
2023-01-07T01:12:09.714Z,8.5
2023-01-07T01:15:09.713Z,8.7
2023-01-07T01:18:09.646Z,8.8
2023-01-07T01:21:09.676Z,8.8
2023-01-07T01:24:09.686Z,8.8
2023-01-07T01:27:09.774Z,8.8
2023-01-07T01:30:09.787Z,8.8
2023-01-07T01:33:09.690Z,8.9
2023-01-07T01:36:09.828Z,8.9
2023-01-07T01:39:09.655Z,8.9
2023-01-07T01:42:09.814Z,8.9
2023-01-07T01:45:09.748Z,9
2023-01-07T01:48:09.665Z,8.9
2023-01-07T01:51:09.703Z,8.9
2023-01-07T01:54:09.668Z,9
2023-01-07T01:57:09.600Z,9.1
2023-01-07T02:00:09.828Z,9.1
2023-01-07T02:03:09.764Z,9.2
2023-01-07T02:06:09.699Z,9.2
2023-01-07T02:09:09.841Z,9.3
2023-01-07T02:12:09.697Z,9.2
2023-01-07T02:15:09.791Z,9.3
2023-01-07T02:18:09.740Z,9.1
2023-01-07T02:21:09.669Z,9
2023-01-07T02:24:09.672Z,8.9
2023-01-07T02:27:09.690Z,8.8
2023-01-07T02:30:09.710Z,8.7
2023-01-07T02:33:09.709Z,8.6
2023-01-07T02:36:09.904Z,8.7
2023-01-07T02:39:09.619Z,8.6
2023-01-07T02:42:10.262Z,8.5
2023-01-07T02:45:09.734Z,8.4
2023-01-07T02:48:09.638Z,8.4
2023-01-07T02:51:09.618Z,8.4
2023-01-07T02:54:09.621Z,8.4
2023-01-07T02:57:09.682Z,8.4
2023-01-07T03:00:09.691Z,8.3
2023-01-07T03:03:09.727Z,8.3
2023-01-07T03:06:09.610Z,8.2
2023-01-07T03:09:09.664Z,8.2
2023-01-07T03:12:09.669Z,8.1
2023-01-07T03:15:09.818Z,8.1
2023-01-07T03:18:09.803Z,8.1
2023-01-07T03:21:09.786Z,8.2
2023-01-07T03:24:09.720Z,8.3
2023-01-07T03:27:09.670Z,8.3
2023-01-07T03:30:09.742Z,8.3
2023-01-07T03:33:09.699Z,8.4
2023-01-07T03:36:09.615Z,8.4
2023-01-07T03:39:09.633Z,8.4
2023-01-07T03:42:09.704Z,8.4
2023-01-07T03:45:09.954Z,8.4
2023-01-07T03:48:09.695Z,8.5
2023-01-07T03:51:09.665Z,8.5
2023-01-07T03:54:09.629Z,8.5
2023-01-07T03:57:09.721Z,8.5
2023-01-07T04:00:09.639Z,8.5
2023-01-07T04:03:09.669Z,8.4
2023-01-07T04:06:09.658Z,8.4
2023-01-07T04:09:09.601Z,8.4
2023-01-07T04:12:09.709Z,8.3
2023-01-07T04:15:09.663Z,8.3
2023-01-07T04:18:09.672Z,8.3
2023-01-07T04:21:09.824Z,8.3
2023-01-07T04:24:09.637Z,8.3
2023-01-07T04:27:09.817Z,8.3
2023-01-07T04:30:09.742Z,8.3
2023-01-07T04:33:09.662Z,8.2
2023-01-07T04:36:09.621Z,8.2
2023-01-07T04:39:09.664Z,8.4
2023-01-07T04:42:09.638Z,8.4
2023-01-07T04:45:09.721Z,8.4
2023-01-07T04:48:09.709Z,8.4
2023-01-07T04:51:09.666Z,8.5
2023-01-07T04:54:09.646Z,8.5
2023-01-07T04:57:09.639Z,8.5
2023-01-07T05:00:09.732Z,8.5
2023-01-07T05:03:09.653Z,8.4
2023-01-07T05:06:09.728Z,8.3
2023-01-07T05:09:09.721Z,8.3
2023-01-07T05:12:09.679Z,8.2
2023-01-07T05:15:09.816Z,8.2
2023-01-07T05:18:09.721Z,8.2
2023-01-07T05:21:09.775Z,8.3
2023-01-07T05:24:09.651Z,8.3
2023-01-07T05:27:09.777Z,8.2
2023-01-07T05:30:09.886Z,8.2
2023-01-07T05:33:09.725Z,8.3
2023-01-07T05:36:09.737Z,8.3
2023-01-07T05:39:09.657Z,8.4
2023-01-07T05:42:09.587Z,8.4
2023-01-07T05:45:09.712Z,8.4
2023-01-07T05:48:09.648Z,8.4
2023-01-07T05:51:09.666Z,8.5
2023-01-07T05:54:09.635Z,8.4
2023-01-07T05:57:09.687Z,8.4
2023-01-07T06:00:09.868Z,8.3
2023-01-07T06:03:09.848Z,8.4
2023-01-07T06:06:09.847Z,8.3
2023-01-07T06:09:09.824Z,8.3
2023-01-07T06:12:09.684Z,8.2
2023-01-07T06:15:09.818Z,8.2
2023-01-07T06:18:09.675Z,8.1
2023-01-07T06:21:09.639Z,8.1
2023-01-07T06:24:09.745Z,8
2023-01-07T06:27:09.609Z,7.9
2023-01-07T06:30:09.746Z,7.9
2023-01-07T06:33:09.682Z,7.9
2023-01-07T06:36:09.648Z,7.9
2023-01-07T06:39:09.654Z,7.9
2023-01-07T06:42:09.741Z,7.9
2023-01-07T06:45:09.709Z,7.9
2023-01-07T06:48:09.633Z,7.9
2023-01-07T06:51:09.702Z,7.9
2023-01-07T06:54:09.634Z,7.9
2023-01-07T06:57:09.655Z,7.9
2023-01-07T07:00:09.670Z,7.9
2023-01-07T07:03:10.007Z,7.9
2023-01-07T07:06:09.686Z,7.9
2023-01-07T07:09:09.674Z,7.8
2023-01-07T07:12:09.676Z,7.8
2023-01-07T07:15:09.721Z,7.9
2023-01-07T07:18:09.645Z,7.8
2023-01-07T07:21:09.646Z,7.8
2023-01-07T07:24:09.647Z,7.7
2023-01-07T07:27:09.753Z,7.6
2023-01-07T07:30:09.726Z,7.6
2023-01-07T07:33:09.634Z,7.5
2023-01-07T07:36:09.606Z,7.6
2023-01-07T07:39:09.787Z,7.6
2023-01-07T07:42:09.822Z,7.7
2023-01-07T07:45:09.802Z,7.7
2023-01-07T07:48:09.762Z,7.9
2023-01-07T07:51:09.718Z,8
2023-01-07T07:54:09.627Z,8.1
2023-01-07T07:57:09.676Z,8.2
2023-01-07T08:00:09.720Z,8.2
2023-01-07T08:03:10.298Z,8.3
2023-01-07T08:06:09.866Z,8.3
2023-01-07T08:09:09.670Z,8.4
2023-01-07T08:12:09.710Z,8.4
2023-01-07T08:15:09.708Z,8.5
2023-01-07T08:18:09.651Z,8.4
2023-01-07T08:21:09.743Z,8.4
2023-01-07T08:24:11.427Z,8.5
2023-01-07T08:27:09.760Z,8.6
2023-01-07T08:30:09.853Z,8.6
2023-01-07T08:33:09.690Z,8.7
2023-01-07T08:36:26.463Z,8.8
2023-01-07T08:39:09.712Z,8.9
2023-01-07T08:42:09.657Z,9
2023-01-07T08:45:09.771Z,9.1
2023-01-07T08:48:09.773Z,9.2
2023-01-07T08:51:09.687Z,9.3
2023-01-07T08:54:09.703Z,9.4
2023-01-07T08:57:09.668Z,9.5
2023-01-07T09:00:09.742Z,9.7
2023-01-07T09:03:09.870Z,9.8
2023-01-07T09:06:09.791Z,9.9
2023-01-07T09:09:09.638Z,10.1
2023-01-07T09:12:12.934Z,10.1
2023-01-07T09:15:09.764Z,10.1
2023-01-07T09:18:09.743Z,10.1
2023-01-07T09:21:09.665Z,10.3
2023-01-07T09:24:09.724Z,10.3
2023-01-07T09:27:09.671Z,10.3
2023-01-07T09:30:09.792Z,10.4
2023-01-07T09:33:09.715Z,10.5
2023-01-07T09:36:09.693Z,10.6
2023-01-07T09:39:09.663Z,10.6
2023-01-07T09:42:09.621Z,10.8
2023-01-07T09:45:09.671Z,10.9
2023-01-07T09:48:09.657Z,11.1
2023-01-07T09:51:09.650Z,11.3
2023-01-07T09:54:09.661Z,11.4
2023-01-07T09:57:09.724Z,11.6
2023-01-07T10:00:09.812Z,11.8
2023-01-07T10:03:09.826Z,12.1
2023-01-07T10:06:09.794Z,12.2
2023-01-07T10:09:09.822Z,12.2
2023-01-07T10:12:09.946Z,12.2
2023-01-07T10:15:10.207Z,12.1
2023-01-07T10:18:12.566Z,12
2023-01-07T10:21:09.709Z,11.7
2023-01-07T10:24:09.890Z,11.5
2023-01-07T10:27:09.659Z,11.2
2023-01-07T10:30:09.785Z,10.9
2023-01-07T10:33:09.666Z,10.9
2023-01-07T10:36:09.695Z,10.8
2023-01-07T10:39:09.634Z,10.8
2023-01-07T10:42:09.673Z,10.9
2023-01-07T10:45:09.614Z,10.9
2023-01-07T10:48:09.677Z,10.9
2023-01-07T10:51:09.721Z,10.9
2023-01-07T10:54:09.668Z,11
2023-01-07T10:57:09.712Z,10.9
2023-01-07T11:00:09.810Z,10.9
2023-01-07T11:03:10.311Z,10.9
2023-01-07T11:06:09.706Z,10.9
2023-01-07T11:09:09.601Z,11.1
2023-01-07T11:12:09.732Z,11.1
2023-01-07T11:15:09.685Z,11.1
2023-01-07T11:18:11.589Z,11.2
2023-01-07T11:21:09.690Z,11.2
2023-01-07T11:24:09.713Z,11.3
2023-01-07T11:27:09.753Z,11.3
2023-01-07T11:30:09.985Z,11.3
2023-01-07T11:33:09.703Z,11.3
2023-01-07T11:36:09.707Z,11.3
2023-01-07T11:39:09.691Z,11.4
2023-01-07T11:42:09.694Z,11.5
2023-01-07T11:45:09.753Z,11.5
2023-01-07T11:48:09.792Z,11.6
2023-01-07T11:51:09.665Z,11.6
2023-01-07T11:54:09.795Z,11.6
2023-01-07T11:57:09.718Z,11.5
2023-01-07T12:00:09.745Z,11.4
2023-01-07T12:03:09.861Z,11.4
2023-01-07T12:06:09.746Z,11.4
2023-01-07T12:09:10.466Z,11.5
2023-01-07T12:12:09.770Z,11.6
2023-01-07T12:15:09.738Z,11.6
2023-01-07T12:18:09.707Z,11.6
2023-01-07T12:21:09.691Z,11.5
2023-01-07T12:24:09.758Z,11.4
2023-01-07T12:27:09.809Z,11.4
2023-01-07T12:30:09.824Z,11.4
2023-01-07T12:33:09.696Z,11.3
2023-01-07T12:36:09.717Z,11.3
2023-01-07T12:39:09.914Z,11.3
2023-01-07T12:42:09.745Z,11.2
2023-01-07T12:45:09.753Z,11.2
2023-01-07T12:48:09.864Z,11.1
2023-01-07T12:51:09.663Z,11.1
2023-01-07T12:54:09.699Z,11
2023-01-07T12:57:10.009Z,10.9
2023-01-07T13:00:09.908Z,10.8
2023-01-07T13:03:09.791Z,10.7
2023-01-07T13:06:09.807Z,10.7
2023-01-07T13:09:09.711Z,10.6
2023-01-07T13:12:43.943Z,10.5
2023-01-07T13:15:09.691Z,10.4
2023-01-07T13:18:09.682Z,10.4
2023-01-07T13:21:09.778Z,10.3
2023-01-07T13:24:09.784Z,10.3
2023-01-07T13:27:09.709Z,10.3
2023-01-07T13:30:09.779Z,10.2
2023-01-07T13:33:09.716Z,10.2
2023-01-07T13:36:09.655Z,10.1
2023-01-07T13:39:09.651Z,10.2
2023-01-07T13:42:09.896Z,10.1
2023-01-07T13:45:09.763Z,10.1
2023-01-07T13:48:10.097Z,10.1
2023-01-07T13:51:09.728Z,10.1
2023-01-07T13:54:11.646Z,10.1
2023-01-07T13:57:09.689Z,10.1
2023-01-07T14:00:09.784Z,10
2023-01-07T14:03:10.362Z,10
2023-01-07T14:06:09.683Z,9.9
2023-01-07T14:09:09.728Z,9.9
2023-01-07T14:12:09.631Z,9.8
2023-01-07T14:15:09.740Z,9.8
2023-01-07T14:18:09.781Z,9.7
2023-01-07T14:21:09.758Z,9.7
2023-01-07T14:24:09.690Z,9.7
2023-01-07T14:27:09.662Z,9.7
2023-01-07T14:30:25.872Z,9.6
2023-01-07T14:33:09.760Z,9.6
2023-01-07T14:36:09.853Z,9.6
2023-01-07T14:39:09.785Z,9.7
2023-01-07T14:42:09.727Z,9.7
2023-01-07T14:45:09.695Z,9.6
2023-01-07T14:48:09.778Z,9.6
2023-01-07T14:51:09.734Z,9.6
2023-01-07T14:54:09.843Z,9.6
2023-01-07T14:57:09.656Z,9.6
2023-01-07T15:00:09.879Z,9.4
2023-01-07T15:03:10.184Z,9.4
2023-01-07T15:06:09.694Z,9.3
2023-01-07T15:09:09.711Z,9.3
2023-01-07T15:12:09.848Z,9.2
2023-01-07T15:15:09.772Z,9.1
2023-01-07T15:18:09.715Z,9.1
2023-01-07T15:21:09.728Z,9.2
2023-01-07T15:24:09.707Z,9.2
2023-01-07T15:27:09.666Z,9.1
2023-01-07T15:30:09.724Z,9.1
2023-01-07T15:33:09.689Z,8.9
2023-01-07T15:36:09.672Z,8.9
2023-01-07T15:39:09.795Z,8.9
2023-01-07T15:42:09.672Z,8.8
2023-01-07T15:45:09.672Z,8.8
2023-01-07T15:48:09.609Z,8.8
2023-01-07T15:51:09.776Z,8.8
2023-01-07T15:54:11.075Z,8.8
2023-01-07T15:57:10.418Z,8.8
2023-01-07T16:00:09.957Z,8.8
2023-01-07T16:03:10.062Z,8.7
2023-01-07T16:06:10.981Z,8.6
2023-01-07T16:09:10.963Z,8.6
2023-01-07T16:12:10.290Z,8.6
2023-01-07T16:15:14.074Z,8.6
2023-01-07T16:18:09.705Z,8.6
2023-01-07T16:21:09.699Z,8.5
2023-01-07T16:24:09.705Z,8.5
2023-01-07T16:27:11.668Z,8.4
2023-01-07T16:30:10.297Z,8.4
2023-01-07T16:33:10.732Z,8.4
2023-01-07T16:36:10.353Z,8.3
2023-01-07T16:39:10.245Z,8.3
2023-01-07T16:42:09.960Z,8.3
2023-01-07T16:45:09.632Z,8
2023-01-07T16:48:09.631Z,7.7
2023-01-07T16:51:09.618Z,7.6
2023-01-07T16:54:10.042Z,7.4
2023-01-07T16:57:10.153Z,7.2
2023-01-07T17:00:10.336Z,7.1
2023-01-07T17:03:10.377Z,7
2023-01-07T17:06:13.332Z,6.9
2023-01-07T17:09:09.868Z,6.8
2023-01-07T17:12:09.714Z,6.7
2023-01-07T17:15:10.040Z,6.6
2023-01-07T17:18:09.658Z,6.6
2023-01-07T17:21:10.596Z,6.5
2023-01-07T17:24:09.642Z,6.5
2023-01-07T17:27:10.098Z,6.4
2023-01-07T17:30:09.696Z,6.3
2023-01-07T17:33:11.394Z,6.2
2023-01-07T17:36:09.655Z,6.1
2023-01-07T17:39:09.737Z,6
2023-01-07T17:42:09.598Z,5.9
2023-01-07T17:45:09.649Z,5.8
2023-01-07T17:48:09.620Z,5.7
2023-01-07T17:51:12.171Z,5.6
2023-01-07T17:54:10.843Z,5.4
2023-01-07T17:57:09.575Z,5.3
2023-01-07T18:00:09.714Z,5.2
2023-01-07T18:03:10.633Z,5.1
2023-01-07T18:06:09.676Z,5.1
2023-01-07T18:09:09.796Z,5.1
2023-01-07T18:12:09.664Z,5.2
2023-01-07T18:15:09.721Z,5.4
2023-01-07T18:18:10.191Z,5.6
2023-01-07T18:21:09.634Z,5.9
2023-01-07T18:24:10.131Z,6.1
2023-01-07T18:27:11.291Z,6.2
2023-01-07T18:30:09.691Z,6.2
2023-01-07T18:33:09.655Z,6.3
2023-01-07T18:36:09.649Z,6.4
2023-01-07T18:39:09.733Z,6.6
2023-01-07T18:42:09.618Z,6.8
2023-01-07T18:45:11.911Z,7.2
2023-01-07T18:48:09.668Z,7.4
2023-01-07T18:51:09.644Z,7.6
2023-01-07T18:54:09.709Z,7.7
2023-01-07T18:57:09.611Z,7.7
2023-01-07T19:00:10.452Z,7.6
2023-01-07T19:03:09.629Z,7.4
2023-01-07T19:06:10.707Z,7.2
2023-01-07T19:09:10.436Z,7
2023-01-07T19:12:09.725Z,6.8
2023-01-07T19:15:09.731Z,6.6
2023-01-07T19:18:09.717Z,6.8
2023-01-07T19:21:10.019Z,7.1
2023-01-07T19:24:10.331Z,7.7
2023-01-07T19:27:09.652Z,8.1
2023-01-07T19:30:10.581Z,8.3
2023-01-07T19:33:09.880Z,8
2023-01-07T19:36:11.503Z,7.9
2023-01-07T19:39:09.697Z,7.7
2023-01-07T19:42:09.597Z,7.5
2023-01-07T19:45:09.668Z,7.4
2023-01-07T19:48:09.669Z,7.4
2023-01-07T19:51:11.967Z,7.4
2023-01-07T19:54:11.292Z,7.4
2023-01-07T19:57:12.541Z,7.3
2023-01-07T20:00:09.835Z,7.4
2023-01-07T20:03:10.084Z,7.4
2023-01-07T20:06:10.004Z,7.4
2023-01-07T20:09:09.612Z,7.4
2023-01-07T20:12:10.235Z,7.4
2023-01-07T20:15:10.081Z,7.4
2023-01-07T20:18:09.761Z,7.4
2023-01-07T20:21:09.688Z,7.2
2023-01-07T20:24:09.614Z,7.4
2023-01-07T20:27:09.698Z,7.6
2023-01-07T20:30:10.223Z,7.7
2023-01-07T20:33:10.549Z,7.9
2023-01-07T20:36:10.079Z,7.8
2023-01-07T20:39:09.779Z,7.9
2023-01-07T20:42:09.661Z,7.8
2023-01-07T20:45:09.657Z,7.8
2023-01-07T20:48:11.549Z,7.9
2023-01-07T20:51:09.720Z,8
2023-01-07T20:54:10.181Z,8.2
2023-01-07T20:57:09.661Z,8.1
2023-01-07T21:00:10.615Z,8.1
2023-01-07T21:03:10.790Z,8.2
2023-01-07T21:06:12.047Z,8.2
2023-01-07T21:09:09.886Z,8.3
2023-01-07T21:12:10.157Z,8.3
2023-01-07T21:15:09.795Z,8.3
2023-01-07T21:18:10.535Z,8.2
2023-01-07T21:21:09.687Z,8.1
2023-01-07T21:24:11.487Z,8.1
2023-01-07T21:27:09.620Z,8.1
2023-01-07T21:30:12.448Z,8.1
2023-01-07T21:33:10.037Z,8.1
2023-01-07T21:36:09.817Z,8.2
2023-01-07T21:39:09.716Z,8.3
2023-01-07T21:42:09.720Z,8.4
2023-01-07T21:45:09.816Z,8.6
2023-01-07T21:48:09.715Z,8.8
2023-01-07T21:51:09.762Z,8.7
2023-01-07T21:54:09.655Z,8.5
2023-01-07T21:57:09.744Z,8.4
2023-01-07T22:00:10.111Z,8.5
2023-01-07T22:03:09.698Z,8.6
2023-01-07T22:06:11.276Z,8.7
2023-01-07T22:09:12.980Z,8.6
2023-01-07T22:12:10.036Z,8.6
2023-01-07T22:15:09.763Z,8.5
2023-01-07T22:18:09.673Z,8.5
2023-01-07T22:21:09.734Z,8.7
2023-01-07T22:24:09.706Z,8.8
2023-01-07T22:27:09.696Z,8.8
2023-01-07T22:30:10.141Z,8.8
2023-01-07T22:33:10.041Z,8.9
2023-01-07T22:36:09.966Z,8.8
2023-01-07T22:39:10.886Z,8.6
2023-01-07T22:42:09.635Z,8.5
2023-01-07T22:45:09.646Z,8.4
2023-01-07T22:48:09.683Z,8.3
2023-01-07T22:51:09.771Z,8.3
2023-01-07T22:54:09.714Z,8.3
2023-01-07T22:57:09.691Z,8.4
2023-01-07T23:00:10.544Z,8.3
2023-01-07T23:03:10.226Z,8.4
2023-01-07T23:06:09.673Z,8.4
2023-01-07T23:09:09.660Z,8.3
2023-01-07T23:12:09.737Z,8.4
2023-01-07T23:15:09.648Z,8.4
2023-01-07T23:18:09.644Z,8.4
2023-01-07T23:21:09.612Z,8.6
2023-01-07T23:24:09.699Z,8.8
2023-01-07T23:27:09.656Z,8.9
2023-01-07T23:30:09.682Z,8.9
2023-01-07T23:33:09.630Z,8.9
2023-01-07T23:36:09.648Z,8.9
2023-01-07T23:39:09.725Z,8.8
2023-01-07T23:42:09.673Z,8.8
2023-01-07T23:45:09.663Z,8.8
2023-01-07T23:48:09.602Z,8.9
2023-01-07T23:51:09.655Z,8.9
2023-01-07T23:54:09.625Z,8.8
2023-01-07T23:57:09.600Z,8.6
